createdAt,value
2023-06-11T00:01:15.453Z,6.10
2023-06-11T00:06:18.905Z,7.10
2023-06-11T00:11:21.978Z,6.55
2023-06-11T00:16:23.575Z,7.22
2023-06-11T00:21:25.987Z,6.72
2023-06-11T00:26:29.078Z,7.28
2023-06-11T00:31:30.801Z,7.35
2023-06-11T00:36:34.468Z,7.28
2023-06-11T00:41:37.254Z,6.57
2023-06-11T00:46:39.208Z,7.03
2023-06-11T00:51:43.102Z,7.53
2023-06-11T00:56:45.057Z,7.60
2023-06-11T01:01:52.991Z,6.63
2023-06-11T01:06:58.301Z,7.22
2023-06-11T01:12:00.261Z,7.63
2023-06-11T01:17:08.104Z,6.85
2023-06-11T01:23:12.682Z,7.13
2023-06-11T01:28:18.627Z,6.63
2023-06-11T01:33:25.929Z,7.00
2023-06-11T01:38:31.923Z,7.03
2023-06-11T01:43:34.112Z,7.13
2023-06-11T01:48:37.654Z,7.93
2023-06-11T01:53:39.393Z,7.18
2023-06-11T01:58:43.599Z,7.60
2023-06-11T02:03:45.345Z,7.13
2023-06-11T02:08:47.092Z,8.48
2023-06-11T02:13:48.774Z,7.72
2023-06-11T02:18:50.335Z,7.57
2023-06-11T02:23:53.174Z,8.40
2023-06-11T02:28:54.747Z,7.72
2023-06-11T02:33:56.370Z,7.63
2023-06-11T02:38:57.968Z,7.88
2023-06-11T02:43:59.695Z,7.13
2023-06-11T02:49:01.775Z,8.70
2023-06-11T02:54:04.027Z,8.52
2023-06-11T02:59:06.587Z,7.13
2023-06-11T03:04:08.485Z,7.50
2023-06-11T03:09:10.061Z,8.13
2023-06-11T03:14:11.574Z,7.32
2023-06-11T03:19:13.239Z,7.63
2023-06-11T03:24:14.820Z,7.93
2023-06-11T03:29:16.533Z,8.25
2023-06-11T03:34:18.129Z,8.02
2023-06-11T03:39:19.718Z,8.05
2023-06-11T03:44:21.350Z,8.60
2023-06-11T03:49:22.923Z,7.85
2023-06-11T03:54:25.035Z,8.65
2023-06-11T03:59:26.558Z,8.10
2023-06-11T04:04:28.180Z,8.40
2023-06-11T04:09:29.900Z,8.32
2023-06-11T04:14:31.469Z,8.38
2023-06-11T04:19:33.009Z,8.32
2023-06-11T04:24:34.652Z,7.50
2023-06-11T04:29:36.265Z,7.65
2023-06-11T04:34:38.904Z,8.48
2023-06-11T04:39:40.473Z,8.10
2023-06-11T04:44:42.082Z,8.45
2023-06-11T04:49:44.911Z,7.50
2023-06-11T04:54:46.557Z,9.05
2023-06-11T04:59:50.686Z,8.27
2023-06-11T05:04:54.769Z,7.40
2023-06-11T05:10:00.152Z,7.25
2023-06-11T05:15:01.802Z,8.00
2023-06-11T05:20:04.240Z,6.90
2023-06-11T05:25:06.048Z,6.30
2023-06-11T05:30:09.052Z,7.50
2023-06-11T05:35:10.901Z,7.20
2023-06-11T05:40:12.913Z,7.45
2023-06-11T05:45:14.660Z,7.57
2023-06-11T05:50:16.353Z,7.28
2023-06-11T05:55:18.198Z,7.45
2023-06-11T06:00:19.840Z,7.50
2023-06-11T06:05:21.643Z,7.00
2023-06-11T06:10:23.538Z,6.63
2023-06-11T06:15:25.128Z,7.57
2023-06-11T06:20:26.783Z,6.88
2023-06-11T06:25:28.651Z,7.93
2023-06-11T06:30:30.270Z,6.97
2023-06-11T06:35:34.805Z,7.75
2023-06-11T06:40:36.390Z,6.63
2023-06-11T06:45:39.503Z,7.90
2023-06-11T06:50:41.074Z,7.05
2023-06-11T06:55:42.682Z,7.60
2023-06-11T07:00:47.741Z,6.50
2023-06-11T07:05:51.602Z,6.78
2023-06-11T07:10:55.459Z,6.72
2023-06-11T07:15:57.074Z,6.45
2023-06-11T07:20:58.875Z,6.18
2023-06-11T07:26:01.529Z,6.57
2023-06-11T07:31:03.303Z,6.20
2023-06-11T07:36:05.129Z,6.57
2023-06-11T07:41:06.983Z,6.07
2023-06-11T07:46:08.684Z,6.68
2023-06-11T07:51:10.429Z,6.82
2023-06-11T07:56:12.267Z,6.95
2023-06-11T08:01:14.032Z,6.43
2023-06-11T08:06:15.567Z,7.15
2023-06-11T08:11:17.323Z,6.57
2023-06-11T08:16:19.468Z,7.35
2023-06-11T08:21:21.518Z,6.60
2023-06-11T08:26:23.246Z,7.13
2023-06-11T08:31:26.368Z,6.35
2023-06-11T08:36:28.256Z,6.40
2023-06-11T08:41:32.917Z,5.90
2023-06-11T08:46:40.200Z,6.05
2023-06-11T08:51:42.399Z,5.47
2023-06-11T08:56:44.697Z,5.45
2023-06-11T09:01:52.079Z,5.85
2023-06-11T09:07:02.070Z,5.25
2023-06-11T09:12:10.123Z,5.95
2023-06-11T09:17:17.098Z,5.78
2023-06-11T09:22:27.176Z,6.13
2023-06-11T09:27:28.874Z,4.78
2023-06-11T09:32:34.487Z,5.40
2023-06-11T09:37:51.588Z,5.05
2023-06-11T09:42:53.199Z,4.78
2023-06-11T09:47:54.809Z,4.75
2023-06-11T09:52:58.330Z,6.05
2023-06-11T09:58:00.278Z,4.88
2023-06-11T10:03:02.299Z,5.17
2023-06-11T10:08:17.275Z,5.53
2023-06-11T10:13:29.449Z,5.85
2023-06-11T10:18:31.832Z,5.43
2023-06-11T10:23:37.845Z,5.03
2023-06-11T10:28:52.452Z,4.22
2023-06-11T10:34:01.871Z,3.75
2023-06-11T10:39:27.878Z,3.88
2023-06-11T10:44:33.414Z,4.60
2023-06-11T10:49:36.081Z,4.80
2023-06-11T10:54:38.472Z,5.43
2023-06-11T11:04:52.828Z,4.80
2023-06-11T11:09:57.230Z,4.55
2023-06-11T11:15:06.406Z,3.92
2023-06-11T11:20:09.642Z,3.72
2023-06-11T11:25:12.164Z,3.17
2023-06-11T11:30:14.962Z,4.45
2023-06-11T11:35:16.917Z,3.42
2023-06-11T11:40:20.691Z,3.15
2023-06-11T11:45:31.332Z,3.03
2023-06-11T11:50:34.801Z,3.20
2023-06-11T11:55:51.719Z,3.15
2023-06-11T12:01:00.719Z,3.35
2023-06-11T12:06:05.713Z,3.08
2023-06-11T12:11:08.461Z,3.40
2023-06-11T12:16:10.113Z,3.22
2023-06-11T12:21:12.777Z,3.37
2023-06-11T12:26:14.545Z,2.90
2023-06-11T12:31:17.582Z,3.25
2023-06-11T12:36:19.168Z,3.17
2023-06-11T12:41:21.469Z,2.60
2023-06-11T12:46:23.598Z,3.63
2023-06-11T12:51:25.318Z,3.50
2023-06-11T12:56:27.212Z,3.15
2023-06-11T13:01:29.939Z,3.42
2023-06-11T13:06:31.521Z,3.20
2023-06-11T13:11:33.290Z,3.38
2023-06-11T13:16:34.924Z,3.35
2023-06-11T13:21:37.248Z,3.45
2023-06-11T13:26:39.097Z,3.22
2023-06-11T13:31:40.766Z,3.47
2023-06-11T13:36:43.614Z,3.08
2023-06-11T13:41:46.562Z,3.53
2023-06-11T13:46:48.510Z,3.20
2023-06-11T13:51:52.468Z,3.42
2023-06-11T13:56:55.009Z,3.38
2023-06-11T14:02:02.350Z,3.55
2023-06-11T14:07:04.634Z,3.03
2023-06-11T14:12:07.828Z,3.53
2023-06-11T14:17:13.319Z,3.35
2023-06-11T14:22:15.484Z,3.72
2023-06-11T14:32:21.685Z,3.63
2023-06-11T14:37:26.143Z,3.55
2023-06-11T14:42:27.701Z,3.42
2023-06-11T14:47:30.315Z,4.43
2023-06-11T14:52:31.874Z,3.92
2023-06-11T14:57:33.471Z,4.45
2023-06-11T15:02:36.994Z,3.85
2023-06-11T15:07:38.646Z,3.90
2023-06-11T15:12:40.239Z,3.97
2023-06-11T15:17:41.779Z,4.15
2023-06-11T15:22:43.766Z,4.47
2023-06-11T15:27:45.487Z,3.83
2023-06-11T15:32:47.185Z,4.30
2023-06-11T15:37:48.749Z,3.70
2023-06-11T15:42:50.546Z,4.07
2023-06-11T15:47:55.358Z,4.32
2023-06-11T15:52:56.962Z,4.50
2023-06-11T15:57:58.509Z,4.07
2023-06-11T16:03:00.402Z,5.25
2023-06-11T16:08:02.044Z,4.10
2023-06-11T16:13:04.806Z,4.00
2023-06-11T16:18:06.443Z,4.45
2023-06-11T16:23:08.095Z,5.00
2023-06-11T16:28:09.651Z,5.22
2023-06-11T16:33:22.928Z,4.40
2023-06-11T16:38:24.609Z,4.15
2023-06-11T16:43:27.588Z,4.72
2023-06-11T16:48:29.260Z,4.40
2023-06-11T16:53:39.029Z,4.80
2023-06-11T16:58:40.506Z,4.55
2023-06-11T17:03:46.445Z,4.07
2023-06-11T17:08:49.673Z,4.38
2023-06-11T17:14:10.230Z,5.43
2023-06-11T17:19:12.125Z,5.40
2023-06-11T17:24:14.232Z,4.68
2023-06-11T17:29:16.140Z,4.22
2023-06-11T17:34:17.761Z,4.47
2023-06-11T17:39:19.217Z,4.57
2023-06-11T17:44:28.288Z,4.80
2023-06-11T17:49:29.766Z,4.63
2023-06-11T17:54:35.969Z,4.40
2023-06-11T17:59:37.465Z,5.07
2023-06-11T18:04:38.945Z,4.70
2023-06-11T18:09:40.491Z,4.88
2023-06-11T18:14:41.950Z,5.03
2023-06-11T18:19:43.642Z,4.88
2023-06-11T18:24:45.233Z,5.20
2023-06-11T18:29:47.744Z,4.72
2023-06-11T18:34:52.239Z,4.70
2023-06-11T18:39:53.691Z,4.95
2023-06-11T18:44:55.507Z,5.15
2023-06-11T18:49:57.422Z,4.80
2023-06-11T18:55:01.851Z,4.63
2023-06-11T19:00:06.715Z,4.63
2023-06-11T19:05:13.975Z,4.43
2023-06-11T19:10:28.202Z,4.57
2023-06-11T19:15:38.622Z,4.27
2023-06-11T19:20:48.297Z,4.45
2023-06-11T19:25:53.189Z,4.13
2023-06-11T19:30:58.840Z,4.10
2023-06-11T19:41:23.363Z,4.28
2023-06-11T19:46:27.882Z,4.13
2023-06-11T19:51:31.735Z,4.25
2023-06-11T19:56:33.768Z,4.05
2023-06-11T20:01:48.701Z,4.07
2023-06-11T20:06:50.649Z,3.58
2023-06-11T20:11:57.524Z,4.22
2023-06-11T20:17:00.753Z,4.18
2023-06-11T20:22:06.070Z,4.38
2023-06-11T20:27:07.886Z,3.83
2023-06-11T20:32:13.051Z,5.22
2023-06-11T20:37:18.153Z,3.90
2023-06-11T20:42:19.902Z,4.55
2023-06-11T20:47:26.420Z,4.03
2023-06-11T20:52:37.722Z,4.53
2023-06-11T20:57:39.524Z,3.80
2023-06-11T21:02:44.152Z,4.35
2023-06-11T21:07:47.336Z,4.30
2023-06-11T21:12:50.648Z,4.75
2023-06-11T21:17:55.395Z,4.00
2023-06-11T21:22:59.191Z,4.50
2023-06-11T21:28:05.513Z,3.88
2023-06-11T21:33:07.171Z,3.80
2023-06-11T21:38:10.391Z,4.05
2023-06-11T21:43:11.968Z,4.43
2023-06-11T21:48:24.657Z,3.30
2023-06-11T21:53:28.119Z,4.47
2023-06-11T21:58:29.759Z,3.40
2023-06-11T22:03:31.504Z,3.38
2023-06-11T22:08:33.309Z,3.95
2023-06-11T22:13:42.153Z,3.35
2023-06-11T22:18:45.490Z,3.97
2023-06-11T22:23:51.304Z,3.55
2023-06-11T22:28:53.294Z,4.13
2023-06-11T22:33:57.987Z,4.05
2023-06-11T22:39:12.420Z,3.30
2023-06-11T22:44:17.767Z,3.43
2023-06-11T22:49:19.363Z,4.05
2023-06-11T22:54:21.821Z,3.78
2023-06-11T22:59:23.327Z,4.07
2023-06-11T23:04:27.543Z,4.38
2023-06-11T23:09:29.654Z,3.90
2023-06-11T23:14:31.187Z,3.95
2023-06-11T23:19:33.466Z,4.13
2023-06-11T23:24:35.772Z,3.65
2023-06-11T23:29:37.361Z,4.03
2023-06-11T23:34:38.817Z,3.90
2023-06-11T23:39:40.260Z,4.38
2023-06-11T23:44:41.806Z,4.00
2023-06-11T23:49:43.405Z,3.75
2023-06-11T23:54:45.069Z,3.85
2023-06-11T23:59:48.808Z,3.92
